MST,Max TemperatureF,Mean TemperatureF,Min TemperatureF,Max Dew PointF,MeanDew PointF,Min DewpointF,Max Humidity, Mean Humidity, Min Humidity, Max Sea Level PressureIn, Mean Sea Level PressureIn, Min Sea Level PressureIn, Max VisibilityMiles, Mean VisibilityMiles, Min VisibilityMiles, Max Wind SpeedMPH, Mean Wind SpeedMPH, Max Gust SpeedMPH,PrecipitationIn, CloudCover, Events, WindDirDegrees
2011-11-1,43,35,26,34,28,24,100,77,53,30.43,30.13,29.87,10,2,0,13,6,22,0.55,8,Fog-Snow,357
2011-11-2,29,23,16,23,17,11,84,76,68,30.59,30.51,30.44,10,10,9,9,2,,T,2,,285
2011-11-3,35,24,12,24,17,10,92,74,56,30.40,30.14,29.91,10,10,10,10,3,,0.00,0,,243
2011-11-4,56,38,19,28,21,15,77,55,32,29.90,29.69,29.47,10,10,10,22,8,35,0.00,0,Rain,223
2011-11-5,45,35,25,32,26,6,92,66,39,29.71,29.46,29.31,10,10,5,15,8,18,T,4,Rain-Snow,326
2011-11-6,39,30,20,17,12,8,77,52,27,30.03,29.87,29.73,10,10,10,23,5,30,0.00,0,,264
2011-11-7,40,30,20,18,14,12,77,56,34,30.14,30.08,30.02,10,10,10,12,3,13,0.00,0,,241
2011-11-8,41,30,18,17,13,9,77,53,28,30.41,30.26,30.10,10,10,10,14,5,16,0.00,0,,221
2011-11-9,44,30,16,17,13,10,74,50,25,30.57,30.47,30.40,10,10,10,9,2,13,0.00,0,,288
2011-11-10,50,35,20,20,11,8,67,43,19,30.37,30.19,30.00,10,10,10,13,4,,0.00,0,,207
2011-11-11,52,39,25,15,11,7,55,36,16,30.02,29.80,29.50,10,10,10,8,4,,0.00,0,,281
2011-11-12,48,37,25,35,20,5,85,58,30,29.55,29.45,29.35,10,10,2,32,11,51,0.01,3,Rain,273
2011-11-13,49,37,25,17,12,9,57,38,19,29.56,29.50,29.40,10,10,10,40,16,53,0.00,0,,271
2011-11-14,47,42,36,11,6,3,35,26,17,29.61,29.53,29.46,10,10,8,43,27,67,0.00,0,,283
2011-11-15,42,30,18,19,13,7,77,50,22,30.12,29.88,29.64,10,10,10,20,5,41,0.00,1,,18
2011-11-16,35,23,11,16,4,-13,92,53,13,30.41,30.24,30.06,10,8,2,12,5,,T,2,Snow,137
2011-11-17,53,35,17,25,15,1,54,41,27,30.17,29.82,29.46,10,10,10,36,10,58,T,1,Rain,230
2011-11-18,47,37,26,30,27,21,100,69,37,29.60,29.52,29.42,10,5,0,28,10,45,0.14,8,Fog-Rain-Snow,22
2011-11-19,32,21,10,25,16,4,96,65,34,30.04,29.80,29.50,10,9,2,22,5,28,T,3,Snow,335
2011-11-20,26,16,5,15,10,3,92,80,68,30.17,30.11,30.05,10,10,8,7,3,,0.00,2,,355
2011-11-21,34,23,11,21,15,9,88,72,56,30.20,30.13,30.04,10,10,8,7,4,,0.00,0,,126
2011-11-22,51,35,19,26,21,15,84,58,32,30.23,30.15,30.02,10,10,10,12,5,22,0.00,0,,313
2011-11-23,51,39,26,28,25,22,78,60,42,30.15,30.05,29.90,10,10,10,12,4,16,0.00,0,,324
2011-11-24,62,45,28,24,18,12,85,51,17,29.88,29.79,29.71,10,10,10,15,7,21,0.00,0,,249
2011-11-25,48,36,24,34,17,-4,76,49,22,30.38,29.87,29.70,10,9,0,25,13,47,T,3,Fog-Snow,299
2011-11-26,38,27,15,9,2,-4,57,39,20,30.69,30.59,30.43,10,10,10,10,4,,0.00,0,,207
2011-11-27,45,30,15,19,14,8,73,52,31,30.55,30.40,30.19,10,10,10,12,4,17,0.00,0,,304
2011-11-28,55,41,27,23,19,14,69,46,22,30.32,30.23,30.13,10,10,10,10,6,,0.00,0,,216
2011-11-29,50,36,21,25,22,18,92,64,36,30.35,30.22,29.97,10,10,10,9,3,,0.00,0,,317
2011-11-30,49,37,24,30,24,18,100,67,34,30.32,30.06,29.78,10,5,0,30,5,40,0.29,5,Fog-Snow,345